Aviation Digital Data Service (ADDS)

Output produced by TAFs form (2351 UTC 18 July 2018)
found at http://www.aviationweather.gov/adds/tafs/
 
RJCC 182330Z 17009KT 5000 BR FEW003 SCT004 BKN005 18/17 Q1012 RMK 1ST003 4ST004 7ST005 A2991
TAF RJCC 182307Z 1900/2006 17013KT 9999 FEW006 BKN015 
     TEMPO 1900/1906 FEW003 BKN006 
     TEMPO 1906/1909 1500 BR FEW001 BKN003 
     TEMPO 1909/1921 0700 -SHRA FG VV001 
     TEMPO 1921/2000 1500 -SHRA BR FEW001 BKN003 
     TEMPO 2000/2006 FEW003 BKN005